createdAt,value
2016-08-14T00:00:05.613Z,68.3
2016-08-14T00:00:14.337Z,68.3
2016-08-14T00:00:23.053Z,68.49
2016-08-14T00:00:31.763Z,68.3
2016-08-14T00:00:40.479Z,68.59
2016-08-14T00:00:49.233Z,68.87
2016-08-14T00:00:58.621Z,68.68
2016-08-14T00:01:07.388Z,68.87
2016-08-14T00:01:16.122Z,68.87
2016-08-14T00:01:24.840Z,68.96
2016-08-14T00:01:33.515Z,68.77
2016-08-14T00:01:42.196Z,69.25
2016-08-14T00:01:50.913Z,69.44
2016-08-14T00:01:59.598Z,69.35
2016-08-14T00:02:08.306Z,69.15
2016-08-14T00:02:16.986Z,69.25
2016-08-14T00:02:25.689Z,69.25
2016-08-14T00:02:34.395Z,69.44
2016-08-14T00:02:43.110Z,69.44
2016-08-14T00:02:51.844Z,68.96
2016-08-14T00:03:00.532Z,69.06
2016-08-14T00:03:09.229Z,68.87
2016-08-14T00:03:17.979Z,68.87
2016-08-14T00:03:26.698Z,68.96
2016-08-14T00:03:35.430Z,68.96
2016-08-14T00:03:44.142Z,68.68
2016-08-14T00:03:52.869Z,68.77
2016-08-14T00:04:01.601Z,68.96
2016-08-14T00:04:11.012Z,68.87
2016-08-14T00:04:20.399Z,68.49
2016-08-14T00:04:29.104Z,68.87
2016-08-14T00:04:37.798Z,68.49
2016-08-14T00:04:46.481Z,68.87
2016-08-14T00:04:55.225Z,68.59
2016-08-14T00:05:03.918Z,68.59
2016-08-14T00:05:12.628Z,68.68
2016-08-14T00:05:21.344Z,68.49
2016-08-14T00:05:30.071Z,68.68
2016-08-14T00:05:38.782Z,68.68
2016-08-14T00:05:47.500Z,68.59
2016-08-14T00:05:56.222Z,68.77
2016-08-14T00:06:04.888Z,68.77
2016-08-14T00:06:13.629Z,68.68
2016-08-14T00:06:23.048Z,68.59
2016-08-14T00:06:31.753Z,68.68
2016-08-14T00:06:40.411Z,68.87
2016-08-14T00:06:49.114Z,68.87
2016-08-14T00:06:57.833Z,68.59
2016-08-14T00:07:06.507Z,68.87
2016-08-14T00:07:15.184Z,68.96
2016-08-14T00:07:23.924Z,69.15
2016-08-14T00:07:32.627Z,69.35
2016-08-14T00:07:41.320Z,69.44
2016-08-14T00:07:50.036Z,69.54
2016-08-14T00:07:58.736Z,69.54
2016-08-14T00:08:07.446Z,69.44
2016-08-14T00:08:16.125Z,69.44
2016-08-14T00:08:24.852Z,69.44
2016-08-14T00:08:33.535Z,69.44
2016-08-14T00:08:42.275Z,69.44
2016-08-14T00:08:50.955Z,69.54
2016-08-14T00:08:59.634Z,69.54
2016-08-14T00:09:08.360Z,69.44
2016-08-14T00:09:17.121Z,69.73
2016-08-14T00:09:25.823Z,70.58
2016-08-14T00:09:34.500Z,70.2
2016-08-14T00:09:43.233Z,70.68
2016-08-14T00:09:52.603Z,70.58
2016-08-14T00:10:01.303Z,70.77
2016-08-14T00:10:09.982Z,70.58
2016-08-14T00:10:18.668Z,70.58
2016-08-14T00:10:27.385Z,70.58
2016-08-14T00:10:36.113Z,70.77
2016-08-14T00:10:44.825Z,70.58
2016-08-14T00:10:53.529Z,70.77
2016-08-14T00:11:02.253Z,70.3
2016-08-14T00:11:10.967Z,70.58
2016-08-14T00:11:19.653Z,70.49
2016-08-14T00:11:28.383Z,70.58
2016-08-14T00:11:37.103Z,70.68
2016-08-14T00:11:45.795Z,71.06
2016-08-14T00:11:54.515Z,70.87
2016-08-14T00:12:03.914Z,71.06
2016-08-14T00:12:12.657Z,70.77
2016-08-14T00:12:21.364Z,70.68
2016-08-14T00:12:30.048Z,70.2
2016-08-14T00:12:38.769Z,70.58
2016-08-14T00:12:47.494Z,70.1
2016-08-14T00:12:56.196Z,70.1
2016-08-14T00:13:04.858Z,69.54
2016-08-14T00:13:13.543Z,69.54
2016-08-14T00:13:22.266Z,69.73
2016-08-14T00:13:31.000Z,69.44
2016-08-14T00:13:39.721Z,69.44
2016-08-14T00:13:48.428Z,69.44
2016-08-14T00:13:57.124Z,69.44
2016-08-14T00:14:05.808Z,69.25
2016-08-14T00:14:14.516Z,69.44
2016-08-14T00:14:23.190Z,69.54
2016-08-14T00:14:32.533Z,68.77
2016-08-14T00:14:41.248Z,69.06
2016-08-14T00:14:49.975Z,69.44
2016-08-14T00:14:58.724Z,69.54
2016-08-14T00:15:07.448Z,69.54
2016-08-14T00:15:16.148Z,70.01
2016-08-14T00:15:24.843Z,70.01
2016-08-14T00:15:33.587Z,70.01
2016-08-14T00:15:42.332Z,70.1
2016-08-14T00:15:51.035Z,70.1
2016-08-14T00:15:59.744Z,69.54
2016-08-14T00:16:08.437Z,69.92
2016-08-14T00:16:17.176Z,69.44
2016-08-14T00:16:25.936Z,69.54
2016-08-14T00:16:35.360Z,69.82
2016-08-14T00:16:44.095Z,69.44
2016-08-14T00:16:52.824Z,69.44
2016-08-14T00:17:01.547Z,69.63
2016-08-14T00:17:10.266Z,69.54
2016-08-14T00:17:18.979Z,69.54
2016-08-14T00:17:27.677Z,69.44
2016-08-14T00:17:36.443Z,69.44
2016-08-14T00:17:45.152Z,69.44
2016-08-14T00:17:54.529Z,69.35
2016-08-14T00:18:03.894Z,69.44
2016-08-14T00:18:12.657Z,69.44
2016-08-14T00:18:22.065Z,69.63
2016-08-14T00:18:31.479Z,69.44
2016-08-14T00:18:40.178Z,69.63
2016-08-14T00:18:48.917Z,69.44
2016-08-14T00:18:57.628Z,69.35
2016-08-14T00:19:06.308Z,69.44
2016-08-14T00:19:15.035Z,69.54
2016-08-14T00:19:23.752Z,69.44
2016-08-14T00:19:32.465Z,69.54
2016-08-14T00:19:41.175Z,69.63
2016-08-14T00:19:49.895Z,69.44
2016-08-14T00:19:58.630Z,69.44
2016-08-14T00:20:07.361Z,69.92
2016-08-14T00:20:16.017Z,70.2
2016-08-14T00:20:24.701Z,70.87
2016-08-14T00:20:33.386Z,71.15
2016-08-14T00:20:42.077Z,71.34
2016-08-14T00:20:50.787Z,70.97
2016-08-14T00:20:59.528Z,71.53
2016-08-14T00:21:08.252Z,71.06
2016-08-14T00:21:16.959Z,71.06
2016-08-14T00:21:25.627Z,71.34
2016-08-14T00:21:34.329Z,71.06
2016-08-14T00:21:43.063Z,70.58
2016-08-14T00:21:51.791Z,70.68
2016-08-14T00:22:01.136Z,70.97
2016-08-14T00:22:09.861Z,70.77
2016-08-14T00:22:18.609Z,70.77
2016-08-14T00:22:27.322Z,70.87
2016-08-14T00:22:35.981Z,70.77
2016-08-14T00:22:44.703Z,70.58
2016-08-14T00:22:53.389Z,70.3
2016-08-14T00:23:02.105Z,70.01
2016-08-14T00:23:10.827Z,69.92
2016-08-14T00:23:19.524Z,69.73
2016-08-14T00:23:28.221Z,69.92
2016-08-14T00:23:36.940Z,69.82
2016-08-14T00:23:45.652Z,69.63
2016-08-14T00:23:54.415Z,69.63
2016-08-14T00:24:03.150Z,69.44
2016-08-14T00:24:11.855Z,69.35
2016-08-14T00:24:20.543Z,68.77
2016-08-14T00:24:29.246Z,68.96
2016-08-14T00:24:37.935Z,68.77
2016-08-14T00:24:46.653Z,68.77
2016-08-14T00:24:55.398Z,69.54
2016-08-14T00:25:04.099Z,68.87
2016-08-14T00:25:12.843Z,69.06
2016-08-14T00:25:21.568Z,68.87
2016-08-14T00:25:30.267Z,68.96
2016-08-14T00:25:38.999Z,68.49
2016-08-14T00:25:47.738Z,68.49
2016-08-14T00:25:56.441Z,68.68
2016-08-14T00:26:05.156Z,68.68
2016-08-14T00:26:13.883Z,68.87
2016-08-14T00:26:22.582Z,68.87
2016-08-14T00:26:31.284Z,68.77
2016-08-14T00:26:40.013Z,68.87
2016-08-14T00:26:48.756Z,68.68
2016-08-14T00:26:57.522Z,68.96
2016-08-14T00:27:06.200Z,69.44
2016-08-14T00:27:14.924Z,69.54
2016-08-14T00:27:23.657Z,70.2
2016-08-14T00:27:32.343Z,70.77
2016-08-14T00:27:41.093Z,71.15
2016-08-14T00:27:50.499Z,71.53
2016-08-14T00:27:59.184Z,71.06
2016-08-14T00:28:07.904Z,71.25
2016-08-14T00:28:16.600Z,71.25
2016-08-14T00:28:25.292Z,71.34
2016-08-14T00:28:33.966Z,71.25
2016-08-14T00:28:42.694Z,71.25
2016-08-14T00:28:51.436Z,71.06
2016-08-14T00:29:00.135Z,71.06
2016-08-14T00:29:08.839Z,71.34
2016-08-14T00:29:17.525Z,71.53
2016-08-14T00:29:26.235Z,70.97
2016-08-14T00:29:34.957Z,70.87
2016-08-14T00:29:43.709Z,70.58
2016-08-14T00:29:52.468Z,70.87
2016-08-14T00:30:01.188Z,70.87
2016-08-14T00:30:09.953Z,71.06
2016-08-14T00:30:18.646Z,70.68
2016-08-14T00:30:28.009Z,70.39
2016-08-14T00:30:36.697Z,70.1
2016-08-14T00:30:45.463Z,70.2
2016-08-14T00:30:54.181Z,70.49
2016-08-14T00:31:02.944Z,70.3
2016-08-14T00:31:11.713Z,70.49
2016-08-14T00:31:20.436Z,70.3
2016-08-14T00:31:29.137Z,70.3
2016-08-14T00:31:37.860Z,70.1
2016-08-14T00:31:46.601Z,70.2
2016-08-14T00:31:55.317Z,70.2
2016-08-14T00:32:03.997Z,70.3
2016-08-14T00:32:12.710Z,70.39
2016-08-14T00:32:21.415Z,70.58
2016-08-14T00:32:30.124Z,70.87
2016-08-14T00:32:38.843Z,71.15
2016-08-14T00:32:47.553Z,71.06
2016-08-14T00:32:56.315Z,71.72
2016-08-14T00:33:05.038Z,72.2
2016-08-14T00:33:13.737Z,72.2
2016-08-14T00:33:22.450Z,72.86
2016-08-14T00:33:31.158Z,72.96
2016-08-14T00:33:39.887Z,72.86
2016-08-14T00:33:48.597Z,72.96
2016-08-14T00:33:57.305Z,73.15
2016-08-14T00:34:06.033Z,73.25
2016-08-14T00:34:14.709Z,72.96
2016-08-14T00:34:23.434Z,73.34
2016-08-14T00:34:32.101Z,73.44
2016-08-14T00:34:40.833Z,73.72
2016-08-14T00:34:49.490Z,74.16
2016-08-14T00:34:58.195Z,74.16
2016-08-14T00:35:06.923Z,74.44
2016-08-14T00:35:15.665Z,74.82
2016-08-14T00:35:24.342Z,75.3
2016-08-14T00:35:33.051Z,75.62
2016-08-14T00:35:41.727Z,75.68
2016-08-14T00:35:50.409Z,75.21
2016-08-14T00:35:59.128Z,75.02
2016-08-14T00:36:07.895Z,75.11
2016-08-14T00:36:16.636Z,74.35
2016-08-14T00:36:25.325Z,73.82
2016-08-14T00:36:34.746Z,73.06
2016-08-14T00:36:43.480Z,72.96
2016-08-14T00:36:52.223Z,72.77
2016-08-14T00:37:00.994Z,72.39
2016-08-14T00:37:09.710Z,72.11
2016-08-14T00:37:18.428Z,71.91
2016-08-14T00:37:27.167Z,72.01
2016-08-14T00:37:35.870Z,72.3
2016-08-14T00:37:44.546Z,71.41
2016-08-14T00:37:53.309Z,71.34
2016-08-14T00:38:02.726Z,70.87
2016-08-14T00:38:11.435Z,71.34
2016-08-14T00:38:20.170Z,70.77
2016-08-14T00:38:28.873Z,70.68
2016-08-14T00:38:37.596Z,70.68
2016-08-14T00:38:46.325Z,70.77
2016-08-14T00:38:55.730Z,71.12
2016-08-14T00:39:04.443Z,71.22
2016-08-14T00:39:13.867Z,71.59
2016-08-14T00:39:22.602Z,71.91
2016-08-14T00:39:31.275Z,71.88
2016-08-14T00:39:40.006Z,71.34
2016-08-14T00:39:48.743Z,71.44
2016-08-14T00:39:57.439Z,70.77
2016-08-14T00:40:06.160Z,71.44
2016-08-14T00:40:14.897Z,71.06
2016-08-14T00:40:23.577Z,71.25
2016-08-14T00:40:32.307Z,71.15
2016-08-14T00:40:41.050Z,70.87
2016-08-14T00:40:49.817Z,70.87
2016-08-14T00:40:58.494Z,70.87
2016-08-14T00:41:07.182Z,70.97
2016-08-14T00:41:15.902Z,71.15
2016-08-14T00:41:24.599Z,71.25
2016-08-14T00:41:33.327Z,70.77
2016-08-14T00:41:42.725Z,71.44
2016-08-14T00:41:51.425Z,71.34
2016-08-14T00:42:00.196Z,71.44
2016-08-14T00:42:08.926Z,71.44
2016-08-14T00:42:17.658Z,71.15
2016-08-14T00:42:26.347Z,71.15
2016-08-14T00:42:35.089Z,71.15
2016-08-14T00:42:43.845Z,71.34
2016-08-14T00:42:52.554Z,70.97
2016-08-14T00:43:01.291Z,71.15
2016-08-14T00:43:09.951Z,71.34
2016-08-14T00:43:18.628Z,71.72
2016-08-14T00:43:27.332Z,71.25
2016-08-14T00:43:36.035Z,71.53
2016-08-14T00:43:44.765Z,71.15
2016-08-14T00:43:53.521Z,71.34
2016-08-14T00:44:02.206Z,71.34
2016-08-14T00:44:10.929Z,71.15
2016-08-14T00:44:19.607Z,71.34
2016-08-14T00:44:28.298Z,71.34
2016-08-14T00:44:36.987Z,71.34
2016-08-14T00:44:45.689Z,71.44
2016-08-14T00:44:54.390Z,71.44
2016-08-14T00:45:03.143Z,71.44
2016-08-14T00:45:11.890Z,71.25
2016-08-14T00:45:20.631Z,71.15
2016-08-14T00:45:29.369Z,71.34
2016-08-14T00:45:38.059Z,71.44
2016-08-14T00:45:46.803Z,70.77
2016-08-14T00:45:55.541Z,71.06
2016-08-14T00:46:04.266Z,71.06
2016-08-14T00:46:12.946Z,71.34
2016-08-14T00:46:21.629Z,71.06
2016-08-14T00:46:31.062Z,70.97
2016-08-14T00:46:39.820Z,71.06
2016-08-14T00:46:48.512Z,70.97
2016-08-14T00:46:57.167Z,70.87
2016-08-14T00:47:05.853Z,70.58
2016-08-14T00:47:14.576Z,70.39
2016-08-14T00:47:23.313Z,70.49
2016-08-14T00:47:32.024Z,70.01
2016-08-14T00:47:40.727Z,69.92
2016-08-14T00:47:49.410Z,69.73
2016-08-14T00:47:58.098Z,70.49
2016-08-14T00:48:06.784Z,70.49
2016-08-14T00:48:15.483Z,70.3
2016-08-14T00:48:24.222Z,70.39
2016-08-14T00:48:32.960Z,70.68
2016-08-14T00:48:41.659Z,70.77
2016-08-14T00:48:50.356Z,70.97
2016-08-14T00:48:59.034Z,71.25
2016-08-14T00:49:07.752Z,71.25
2016-08-14T00:49:16.453Z,71.25
2016-08-14T00:49:25.152Z,71.15
2016-08-14T00:49:33.903Z,70.68
2016-08-14T00:49:42.588Z,70.68
2016-08-14T00:49:51.282Z,70.77
2016-08-14T00:49:59.989Z,70.39
2016-08-14T00:50:08.698Z,70.2
2016-08-14T00:50:17.558Z,69.82
2016-08-14T00:50:26.945Z,69.63
2016-08-14T00:50:35.654Z,69.73
2016-08-14T00:50:44.339Z,69.44
2016-08-14T00:50:53.061Z,69.44
2016-08-14T00:51:01.805Z,69.54
2016-08-14T00:51:10.531Z,69.73
2016-08-14T00:51:19.230Z,70.01
2016-08-14T00:51:27.978Z,70.01
2016-08-14T00:51:36.702Z,69.63
2016-08-14T00:51:45.446Z,70.1
2016-08-14T00:51:54.130Z,70.01
2016-08-14T00:52:02.852Z,70.01
2016-08-14T00:52:11.597Z,70.1
2016-08-14T00:52:20.298Z,69.82
2016-08-14T00:52:29.021Z,69.82
2016-08-14T00:52:38.407Z,69.54
2016-08-14T00:52:47.120Z,69.54
2016-08-14T00:52:55.826Z,69.63
2016-08-14T00:53:04.564Z,69.35
2016-08-14T00:53:13.316Z,69.54
2016-08-14T00:53:22.043Z,68.96
2016-08-14T00:53:30.794Z,68.77
2016-08-14T00:53:39.478Z,68.68
2016-08-14T00:53:48.167Z,68.11
2016-08-14T00:53:56.867Z,67.92
2016-08-14T00:54:05.602Z,67.92
2016-08-14T00:54:14.307Z,68.21
2016-08-14T00:54:23.017Z,68.21
2016-08-14T00:54:31.708Z,68.77
2016-08-14T00:54:40.392Z,68.96
2016-08-14T00:54:49.112Z,68.77
2016-08-14T00:54:57.819Z,68.77
2016-08-14T00:55:07.242Z,69.44
2016-08-14T00:55:15.920Z,69.25
2016-08-14T00:55:24.658Z,69.44
2016-08-14T00:55:34.043Z,70.01
2016-08-14T00:55:43.488Z,70.68
2016-08-14T00:55:52.185Z,71.15
2016-08-14T00:56:00.928Z,71.44
2016-08-14T00:56:09.605Z,71.31
2016-08-14T00:56:18.354Z,71.82
2016-08-14T00:56:27.055Z,72.2
2016-08-14T00:56:35.760Z,72.35
2016-08-14T00:56:44.478Z,72.64
2016-08-14T00:56:53.215Z,72.86
2016-08-14T00:57:01.932Z,73.25
2016-08-14T00:57:10.682Z,73.34
2016-08-14T00:57:19.422Z,73.34
2016-08-14T00:57:28.138Z,73.72
2016-08-14T00:57:36.862Z,73.97
2016-08-14T00:57:45.596Z,74.01
2016-08-14T00:57:54.320Z,74.01
2016-08-14T00:58:03.051Z,73.63
2016-08-14T00:58:12.445Z,73.82
2016-08-14T00:58:21.188Z,73.53
2016-08-14T00:58:29.917Z,73.72
2016-08-14T00:58:38.623Z,73.44
2016-08-14T00:58:47.382Z,73.53
2016-08-14T00:58:56.111Z,72.86
2016-08-14T00:59:04.860Z,73.15
2016-08-14T00:59:13.585Z,73.06
2016-08-14T00:59:22.293Z,72.67
2016-08-14T00:59:30.996Z,72.86
2016-08-14T00:59:39.698Z,72.39
2016-08-14T00:59:48.435Z,72.39
2016-08-14T00:59:57.153Z,72.2
2016-08-14T01:00:06.520Z,72.3
2016-08-14T01:00:15.187Z,72.3
2016-08-14T01:00:23.924Z,72.39
2016-08-14T01:00:32.592Z,72.58
2016-08-14T01:00:41.313Z,72.01
2016-08-14T01:00:49.992Z,72.11
2016-08-14T01:00:58.682Z,72.11
2016-08-14T01:01:07.437Z,72.11
2016-08-14T01:01:16.161Z,72.11
2016-08-14T01:01:24.848Z,71.53
2016-08-14T01:01:33.559Z,71.53
2016-08-14T01:01:42.281Z,71.34
2016-08-14T01:01:50.999Z,71.25
2016-08-14T01:01:59.726Z,71.25
2016-08-14T01:02:08.428Z,70.87
2016-08-14T01:02:17.162Z,71.15
2016-08-14T01:02:25.848Z,70.87
2016-08-14T01:02:34.572Z,70.97
2016-08-14T01:02:43.284Z,71.06
2016-08-14T01:02:51.960Z,70.77
2016-08-14T01:03:00.702Z,70.58
2016-08-14T01:03:09.406Z,70.2
2016-08-14T01:03:18.139Z,70.49
2016-08-14T01:03:26.891Z,69.82
2016-08-14T01:03:35.604Z,69.54
2016-08-14T01:03:44.365Z,69.44
2016-08-14T01:03:53.753Z,69.73
2016-08-14T01:04:02.481Z,69.44
2016-08-14T01:04:11.201Z,69.54
2016-08-14T01:04:19.939Z,69.54
2016-08-14T01:04:28.641Z,68.96
2016-08-14T01:04:38.022Z,69.06
2016-08-14T01:04:46.737Z,69.54
2016-08-14T01:04:55.463Z,68.96
2016-08-14T01:05:04.130Z,69.54
2016-08-14T01:05:12.829Z,69.44
2016-08-14T01:05:21.541Z,69.63
2016-08-14T01:05:30.278Z,69.92
2016-08-14T01:05:38.988Z,69.92
2016-08-14T01:05:47.711Z,69.54
2016-08-14T01:05:56.411Z,69.92
2016-08-14T01:06:05.141Z,70.1
2016-08-14T01:06:13.823Z,70.1
2016-08-14T01:06:22.543Z,70.2
2016-08-14T01:06:31.262Z,69.92
2016-08-14T01:06:40.004Z,69.92
2016-08-14T01:06:48.721Z,69.73
2016-08-14T01:06:57.485Z,69.35
2016-08-14T01:07:06.197Z,69.35
2016-08-14T01:07:14.899Z,68.96
2016-08-14T01:07:23.587Z,68.4
2016-08-14T01:07:32.341Z,68.3
2016-08-14T01:07:41.042Z,67.92
2016-08-14T01:07:49.760Z,67.73
2016-08-14T01:07:58.445Z,67.92
2016-08-14T01:08:07.149Z,67.92
2016-08-14T01:08:15.888Z,67.16
2016-08-14T01:08:24.599Z,67.54
2016-08-14T01:08:33.334Z,67.07
2016-08-14T01:08:42.061Z,67.25
2016-08-14T01:08:50.763Z,67.35
2016-08-14T01:08:59.486Z,67.16
2016-08-14T01:09:08.218Z,66.97
2016-08-14T01:09:16.901Z,66.87
2016-08-14T01:09:25.604Z,67.07
2016-08-14T01:09:34.328Z,67.25
2016-08-14T01:09:43.083Z,67.16
2016-08-14T01:09:51.830Z,67.16
2016-08-14T01:10:00.550Z,66.97
2016-08-14T01:10:09.236Z,67.07
2016-08-14T01:10:17.936Z,67.44
2016-08-14T01:10:26.681Z,67.63
2016-08-14T01:10:35.427Z,67.92
2016-08-14T01:10:44.167Z,68.11
2016-08-14T01:10:52.870Z,67.82
2016-08-14T01:11:01.576Z,67.82
2016-08-14T01:11:10.306Z,68.11
2016-08-14T01:11:19.035Z,67.82
2016-08-14T01:11:27.730Z,68.01
2016-08-14T01:11:36.466Z,68.3
2016-08-14T01:11:45.174Z,68.49
2016-08-14T01:11:53.855Z,68.4
2016-08-14T01:12:02.556Z,68.59
2016-08-14T01:12:11.270Z,68.87
2016-08-14T01:12:19.965Z,68.49
2016-08-14T01:12:28.752Z,68.59
2016-08-14T01:12:37.522Z,68.87
2016-08-14T01:12:46.237Z,68.68
2016-08-14T01:12:54.930Z,68.49
2016-08-14T01:13:04.348Z,68.49
2016-08-14T01:13:13.094Z,68.68
2016-08-14T01:13:21.834Z,68.49
2016-08-14T01:13:31.221Z,69.35
2016-08-14T01:13:39.929Z,69.44
2016-08-14T01:13:48.653Z,69.54
2016-08-14T01:13:57.394Z,69.92
2016-08-14T01:14:06.129Z,70.2
2016-08-14T01:14:14.853Z,70.77
2016-08-14T01:14:23.553Z,70.68
2016-08-14T01:14:32.257Z,70.87
2016-08-14T01:14:41.022Z,71.44
2016-08-14T01:14:49.763Z,71.72
2016-08-14T01:14:58.473Z,71.63
2016-08-14T01:15:07.177Z,72.3
2016-08-14T01:15:15.882Z,71.53
2016-08-14T01:15:24.627Z,72.11
2016-08-14T01:15:33.370Z,72.39
2016-08-14T01:15:42.067Z,72.39
2016-08-14T01:15:50.756Z,72.67
2016-08-14T01:15:59.466Z,73.06
2016-08-14T01:16:08.180Z,72.86
2016-08-14T01:16:16.902Z,73.06
2016-08-14T01:16:25.631Z,72.83
2016-08-14T01:16:34.302Z,72.77
2016-08-14T01:16:43.017Z,73.34
2016-08-14T01:16:51.731Z,73.25
2016-08-14T01:17:00.443Z,73.78
2016-08-14T01:17:09.170Z,74.07
2016-08-14T01:17:17.877Z,74.16
2016-08-14T01:17:26.603Z,73.88
2016-08-14T01:17:35.303Z,73.97
2016-08-14T01:17:43.972Z,74.73
2016-08-14T01:17:52.715Z,74.82
2016-08-14T01:18:01.405Z,73.97
2016-08-14T01:18:10.136Z,73.97
2016-08-14T01:18:18.835Z,73.88
2016-08-14T01:18:27.539Z,73.3
2016-08-14T01:18:36.241Z,73.3
2016-08-14T01:18:44.937Z,73.3
2016-08-14T01:18:53.680Z,72.92
2016-08-14T01:19:02.444Z,73.21
2016-08-14T01:19:11.144Z,73.4
2016-08-14T01:19:19.914Z,73.49
2016-08-14T01:19:28.633Z,73.3
2016-08-14T01:19:37.366Z,72.83
2016-08-14T01:19:46.078Z,72.96
2016-08-14T01:19:54.756Z,73.11
2016-08-14T01:20:04.180Z,72.45
2016-08-14T01:20:12.863Z,72.55
2016-08-14T01:20:21.616Z,72.67
2016-08-14T01:20:30.334Z,72.35
2016-08-14T01:20:39.025Z,72.16
2016-08-14T01:20:47.739Z,71.88
2016-08-14T01:20:56.467Z,72.07
2016-08-14T01:21:05.215Z,72.26
2016-08-14T01:21:13.954Z,72.67
2016-08-14T01:21:22.649Z,72.86
2016-08-14T01:21:31.335Z,72.83
2016-08-14T01:21:40.032Z,72.92
2016-08-14T01:21:48.757Z,72.83
2016-08-14T01:21:57.518Z,72.96
2016-08-14T01:22:06.228Z,73.06
2016-08-14T01:22:15.606Z,73.02
2016-08-14T01:22:24.328Z,72.77
2016-08-14T01:22:33.081Z,72.92
2016-08-14T01:22:41.793Z,72.83
2016-08-14T01:22:50.500Z,72.83
2016-08-14T01:22:59.236Z,72.74
2016-08-14T01:23:07.945Z,72.92
2016-08-14T01:23:16.677Z,73.15
2016-08-14T01:23:25.375Z,72.26
2016-08-14T01:23:34.056Z,72.67
2016-08-14T01:23:42.778Z,72.55
2016-08-14T01:23:51.524Z,72.96
2016-08-14T01:24:00.230Z,72.55
2016-08-14T01:24:08.947Z,72.16
2016-08-14T01:24:17.629Z,71.91
2016-08-14T01:24:26.357Z,71.63
2016-08-14T01:24:35.082Z,71.44
2016-08-14T01:24:43.773Z,71.41
2016-08-14T01:24:52.472Z,70.74
2016-08-14T01:25:01.215Z,70.58
2016-08-14T01:25:09.939Z,70.87
2016-08-14T01:25:18.635Z,70.77
2016-08-14T01:25:27.354Z,71.15
2016-08-14T01:25:36.080Z,71.53
2016-08-14T01:25:44.799Z,71.22
2016-08-14T01:25:53.493Z,70.97
2016-08-14T01:26:02.228Z,71.22
2016-08-14T01:26:10.945Z,71.12
2016-08-14T01:26:19.626Z,71.34
2016-08-14T01:26:28.303Z,71.44
2016-08-14T01:26:36.996Z,71.25
2016-08-14T01:26:45.725Z,71.15
2016-08-14T01:26:54.435Z,71.34
2016-08-14T01:27:03.172Z,71.53
2016-08-14T01:27:11.903Z,71.31
2016-08-14T01:27:20.624Z,71.5
2016-08-14T01:27:29.343Z,71.34
2016-08-14T01:27:38.045Z,71.15
2016-08-14T01:27:46.747Z,71.25
2016-08-14T01:27:55.451Z,70.97
2016-08-14T01:28:04.171Z,71.06
2016-08-14T01:28:12.890Z,71.53
2016-08-14T01:28:21.569Z,71.06
2016-08-14T01:28:30.298Z,71.25
2016-08-14T01:28:39.004Z,71.06
2016-08-14T01:28:47.752Z,71.34
2016-08-14T01:28:56.458Z,71.53
2016-08-14T01:29:05.201Z,72.2
2016-08-14T01:29:13.924Z,72.26
2016-08-14T01:29:22.631Z,72.3
2016-08-14T01:29:31.334Z,72.07
2016-08-14T01:29:40.034Z,71.72
2016-08-14T01:29:48.758Z,71.44
2016-08-14T01:29:57.462Z,71.22
2016-08-14T01:30:06.163Z,71.06
2016-08-14T01:30:14.865Z,71.41
2016-08-14T01:30:24.253Z,71.53
2016-08-14T01:30:33.001Z,72.07
2016-08-14T01:30:41.745Z,71.97
2016-08-14T01:30:50.447Z,71.5
2016-08-14T01:30:59.164Z,71.72
2016-08-14T01:31:08.556Z,71.88
2016-08-14T01:31:17.254Z,71.78
2016-08-14T01:31:26.007Z,71.78
2016-08-14T01:31:34.715Z,71.59
2016-08-14T01:31:43.412Z,71.91
2016-08-14T01:31:52.113Z,72.26
2016-08-14T01:32:00.836Z,72.64
2016-08-14T01:32:09.559Z,72.83
2016-08-14T01:32:18.267Z,73.02
2016-08-14T01:32:26.945Z,73.21
2016-08-14T01:32:35.666Z,73.11
2016-08-14T01:32:44.375Z,73.4
2016-08-14T01:32:53.032Z,73.59
2016-08-14T01:33:01.785Z,73.4
2016-08-14T01:33:10.539Z,73.21
2016-08-14T01:33:19.260Z,73.11
2016-08-14T01:33:27.986Z,73.21
2016-08-14T01:33:36.687Z,73.4
2016-08-14T01:33:45.387Z,73.59
2016-08-14T01:33:54.066Z,73.3
2016-08-14T01:34:02.772Z,73.3
2016-08-14T01:34:11.508Z,73.02
2016-08-14T01:34:20.203Z,72.83
2016-08-14T01:34:28.900Z,72.74
2016-08-14T01:34:37.571Z,73.11
2016-08-14T01:34:46.320Z,72.92
2016-08-14T01:34:55.029Z,72.92
2016-08-14T01:35:03.746Z,72.92
2016-08-14T01:35:12.450Z,72.74
2016-08-14T01:35:21.137Z,72.55
2016-08-14T01:35:29.868Z,72.39
2016-08-14T01:35:38.569Z,72.26
2016-08-14T01:35:47.266Z,72.07
2016-08-14T01:35:56.018Z,71.41
2016-08-14T01:36:04.721Z,71.02
2016-08-14T01:36:13.413Z,71.12
2016-08-14T01:36:22.117Z,70.74
2016-08-14T01:36:30.776Z,70.74
2016-08-14T01:36:39.459Z,71.06
2016-08-14T01:36:48.146Z,70.83
2016-08-14T01:36:56.825Z,70.83
2016-08-14T01:37:05.570Z,70.83
2016-08-14T01:37:14.275Z,71.12
2016-08-14T01:37:23.010Z,70.93
2016-08-14T01:37:31.738Z,71.12
2016-08-14T01:37:40.446Z,71.22
2016-08-14T01:37:49.138Z,71.12
2016-08-14T01:37:57.851Z,71.31
2016-08-14T01:38:06.561Z,71.41
2016-08-14T01:38:15.226Z,71.31
2016-08-14T01:38:23.913Z,71.59
2016-08-14T01:38:32.646Z,71.31
2016-08-14T01:38:41.328Z,70.83
2016-08-14T01:38:50.046Z,70.64
2016-08-14T01:38:58.755Z,70.83
2016-08-14T01:39:07.487Z,70.36
2016-08-14T01:39:16.251Z,70.45
2016-08-14T01:39:24.941Z,70.36
2016-08-14T01:39:34.367Z,70.83
2016-08-14T01:39:43.067Z,70.64
2016-08-14T01:39:51.753Z,70.83
2016-08-14T01:40:00.526Z,71.02
2016-08-14T01:40:09.226Z,71.31
2016-08-14T01:40:17.949Z,71.12
2016-08-14T01:40:26.652Z,71.78
2016-08-14T01:40:35.402Z,71.97
2016-08-14T01:40:44.117Z,72.45
2016-08-14T01:40:53.505Z,72.26
2016-08-14T01:41:02.252Z,72.55
2016-08-14T01:41:10.987Z,73.11
2016-08-14T01:41:19.674Z,73.21
2016-08-14T01:41:28.358Z,73.15
2016-08-14T01:41:37.054Z,72.64
2016-08-14T01:41:46.459Z,72.35
2016-08-14T01:41:55.187Z,72.16
2016-08-14T01:42:03.879Z,72.45
2016-08-14T01:42:12.570Z,72.96
2016-08-14T01:42:21.271Z,72.74
2016-08-14T01:42:30.001Z,72.64
2016-08-14T01:42:38.700Z,72.96
2016-08-14T01:42:47.406Z,72.83
2016-08-14T01:42:56.118Z,72.83
2016-08-14T01:43:04.817Z,72.92
2016-08-14T01:43:13.513Z,72.92
2016-08-14T01:43:22.215Z,72.74
2016-08-14T01:43:30.942Z,72.26
2016-08-14T01:43:39.671Z,72.39
2016-08-14T01:43:48.368Z,71.78
2016-08-14T01:43:57.093Z,71.5
2016-08-14T01:44:05.795Z,72.07
2016-08-14T01:44:14.532Z,72.26
2016-08-14T01:44:23.241Z,72.74
2016-08-14T01:44:31.931Z,72.92
2016-08-14T01:44:40.661Z,73.3
2016-08-14T01:44:49.361Z,74.16
2016-08-14T01:44:58.043Z,73.78
2016-08-14T01:45:06.752Z,74.54
2016-08-14T01:45:15.461Z,74.96
2016-08-14T01:45:24.184Z,75.49
2016-08-14T01:45:32.918Z,75.59
2016-08-14T01:45:41.628Z,75.68
2016-08-14T01:45:51.057Z,75.96
2016-08-14T01:45:59.735Z,75.59
2016-08-14T01:46:08.481Z,76.25
2016-08-14T01:46:17.212Z,76.63
2016-08-14T01:46:25.939Z,76.44
2016-08-14T01:46:34.623Z,77.01
2016-08-14T01:46:43.291Z,77.11
2016-08-14T01:46:51.962Z,77.3
2016-08-14T01:47:00.648Z,77.3
2016-08-14T01:47:09.353Z,76.92
2016-08-14T01:47:18.045Z,76.54
2016-08-14T01:47:26.745Z,76.16
2016-08-14T01:47:35.494Z,75.87
2016-08-14T01:47:44.189Z,75.59
2016-08-14T01:47:52.899Z,75.87
2016-08-14T01:48:01.616Z,75.59
2016-08-14T01:48:10.286Z,74.63
2016-08-14T01:48:18.998Z,75.11
2016-08-14T01:48:27.686Z,75.59
2016-08-14T01:48:36.417Z,75.49
2016-08-14T01:48:45.113Z,75.68
2016-08-14T01:48:53.826Z,76.06
2016-08-14T01:49:02.553Z,76.54
2016-08-14T01:49:11.228Z,77.49
2016-08-14T01:49:20.625Z,77.39
2016-08-14T01:49:29.327Z,77.77
2016-08-14T01:49:38.030Z,77.49
2016-08-14T01:49:47.442Z,78.44
2016-08-14T01:49:56.118Z,78.06
2016-08-14T01:50:04.812Z,78.63
2016-08-14T01:50:13.512Z,78.44
2016-08-14T01:50:22.420Z,78.53
2016-08-14T01:50:31.177Z,78.63
2016-08-14T01:50:39.924Z,78.34
2016-08-14T01:50:48.649Z,78.44
2016-08-14T01:50:57.382Z,78.91
2016-08-14T01:51:06.105Z,78.82
2016-08-14T01:51:14.827Z,78.91
2016-08-14T01:51:23.509Z,79.49
2016-08-14T01:51:32.258Z,79.39
2016-08-14T01:51:40.938Z,80.15
2016-08-14T01:51:49.660Z,80.34
2016-08-14T01:51:59.046Z,80.05
2016-08-14T01:52:07.725Z,80.15
2016-08-14T01:52:16.410Z,80.63
2016-08-14T01:52:25.787Z,80.72
2016-08-14T01:52:34.472Z,80.53
2016-08-14T01:52:43.198Z,80.53
2016-08-14T01:52:51.925Z,81.1
2016-08-14T01:53:00.613Z,80.63